Terminal Aerodrome Forecast
Issued by NWS Jackson, MS

Home | Current Version | Previous Version | Text Only | Print | Product List | Glossary On
Versions: 1 2 3 4 5 6 7 8 9 10 11 12 13
000
FTUS44 KMEG 271734
TAFTUP
TAF
KTUP 271734Z 2718/2818 19008KT P6SM VCSH BKN035
     FM272000 19011KT P6SM BKN045
     FM280200 21007KT P6SM BKN040 BKN150
     FM280500 21007KT P6SM -SHRA VCTS BKN040CB
      TEMPO 2805/2809 VRB20G35KT 1SM +TSRA OVC020CB
     FM280900 28007KT 6SM -SHRA VCTS BKN009 OVC020CB
     FM281600 24009KT P6SM VCTS SCT012 BKN030CB=

USA.gov is the U.S. government's official web portal to all federal, state and local government web resources and services.